sensor_id;sensor_type;location;lat;lon;timestamp;P1;durP1;ratioP1;P2;durP2;ratioP2
2570;SDS011;1295;51.130;6.732;2023-07-20T00:01:20;62.50;;;5.67;;
2570;SDS011;1295;51.130;6.732;2023-07-20T00:03:45;56.23;;;4.83;;
2570;SDS011;1295;51.130;6.732;2023-07-20T00:06:11;57.37;;;4.33;;
2570;SDS011;1295;51.130;6.732;2023-07-20T00:08:37;57.17;;;5.80;;
2570;SDS011;1295;51.130;6.732;2023-07-20T00:11:03;65.20;;;5.33;;
2570;SDS011;1295;51.130;6.732;2023-07-20T00:13:29;57.40;;;5.57;;
2570;SDS011;1295;51.130;6.732;2023-07-20T00:15:54;63.33;;;5.90;;
2570;SDS011;1295;51.130;6.732;2023-07-20T00:18:20;62.00;;;6.10;;
2570;SDS011;1295;51.130;6.732;2023-07-20T00:20:46;56.83;;;5.10;;
2570;SDS011;1295;51.130;6.732;2023-07-20T00:23:11;57.60;;;6.10;;
2570;SDS011;1295;51.130;6.732;2023-07-20T00:25:37;55.90;;;5.17;;
2570;SDS011;1295;51.130;6.732;2023-07-20T00:28:02;57.73;;;5.10;;
2570;SDS011;1295;51.130;6.732;2023-07-20T00:30:29;59.63;;;5.97;;
2570;SDS011;1295;51.130;6.732;2023-07-20T00:32:55;58.47;;;6.20;;
2570;SDS011;1295;51.130;6.732;2023-07-20T00:35:21;59.83;;;6.47;;
2570;SDS011;1295;51.130;6.732;2023-07-20T00:37:47;77.73;;;8.13;;
2570;SDS011;1295;51.130;6.732;2023-07-20T00:40:13;62.10;;;7.43;;
2570;SDS011;1295;51.130;6.732;2023-07-20T00:42:38;61.53;;;6.47;;
2570;SDS011;1295;51.130;6.732;2023-07-20T00:45:05;57.07;;;7.53;;
2570;SDS011;1295;51.130;6.732;2023-07-20T00:47:31;59.47;;;6.93;;
2570;SDS011;1295;51.130;6.732;2023-07-20T00:49:57;58.77;;;6.00;;
2570;SDS011;1295;51.130;6.732;2023-07-20T00:52:23;56.07;;;6.47;;
2570;SDS011;1295;51.130;6.732;2023-07-20T00:54:49;58.67;;;7.73;;
2570;SDS011;1295;51.130;6.732;2023-07-20T00:57:15;57.73;;;7.17;;
2570;SDS011;1295;51.130;6.732;2023-07-20T00:59:40;65.57;;;7.53;;
2570;SDS011;1295;51.130;6.732;2023-07-20T01:02:06;58.37;;;8.17;;
2570;SDS011;1295;51.130;6.732;2023-07-20T01:04:32;61.63;;;8.53;;
2570;SDS011;1295;51.130;6.732;2023-07-20T01:09:42;63.57;;;7.67;;
2570;SDS011;1295;51.130;6.732;2023-07-20T01:12:18;58.97;;;8.37;;
2570;SDS011;1295;51.130;6.732;2023-07-20T01:14:44;62.63;;;9.10;;
2570;SDS011;1295;51.130;6.732;2023-07-20T01:17:09;61.57;;;8.90;;
2570;SDS011;1295;51.130;6.732;2023-07-20T01:19:40;60.60;;;8.83;;
2570;SDS011;1295;51.130;6.732;2023-07-20T01:22:09;58.30;;;7.93;;
2570;SDS011;1295;51.130;6.732;2023-07-20T01:24:39;60.90;;;8.40;;
2570;SDS011;1295;51.130;6.732;2023-07-20T01:28:19;59.30;;;7.43;;
2570;SDS011;1295;51.130;6.732;2023-07-20T01:30:02;60.57;;;6.67;;
2570;SDS011;1295;51.130;6.732;2023-07-20T01:32:35;65.77;;;7.80;;
2570;SDS011;1295;51.130;6.732;2023-07-20T01:35:01;60.70;;;5.83;;
2570;SDS011;1295;51.130;6.732;2023-07-20T01:37:27;60.20;;;6.93;;
2570;SDS011;1295;51.130;6.732;2023-07-20T01:39:53;64.77;;;5.90;;
2570;SDS011;1295;51.130;6.732;2023-07-20T01:42:20;56.97;;;5.43;;
2570;SDS011;1295;51.130;6.732;2023-07-20T01:44:45;60.27;;;5.73;;
2570;SDS011;1295;51.130;6.732;2023-07-20T01:47:11;55.17;;;4.00;;
2570;SDS011;1295;51.130;6.732;2023-07-20T01:49:36;58.53;;;5.43;;
2570;SDS011;1295;51.130;6.732;2023-07-20T01:52:02;57.80;;;4.27;;
2570;SDS011;1295;51.130;6.732;2023-07-20T01:54:29;61.20;;;5.50;;
2570;SDS011;1295;51.130;6.732;2023-07-20T01:56:55;57.60;;;5.60;;
2570;SDS011;1295;51.130;6.732;2023-07-20T01:59:21;67.00;;;5.80;;
2570;SDS011;1295;51.130;6.732;2023-07-20T02:01:46;57.70;;;4.43;;
2570;SDS011;1295;51.130;6.732;2023-07-20T02:04:12;63.90;;;5.53;;
2570;SDS011;1295;51.130;6.732;2023-07-20T02:06:38;56.60;;;4.70;;
2570;SDS011;1295;51.130;6.732;2023-07-20T02:09:03;61.37;;;5.77;;
2570;SDS011;1295;51.130;6.732;2023-07-20T02:11:29;57.17;;;5.60;;
2570;SDS011;1295;51.130;6.732;2023-07-20T02:13:54;59.73;;;5.47;;
2570;SDS011;1295;51.130;6.732;2023-07-20T02:16:20;64.13;;;5.70;;
2570;SDS011;1295;51.130;6.732;2023-07-20T02:18:46;59.40;;;5.90;;
2570;SDS011;1295;51.130;6.732;2023-07-20T02:21:12;59.23;;;5.53;;
2570;SDS011;1295;51.130;6.732;2023-07-20T02:23:39;59.87;;;5.67;;
2570;SDS011;1295;51.130;6.732;2023-07-20T02:26:04;58.47;;;5.43;;
2570;SDS011;1295;51.130;6.732;2023-07-20T02:28:30;58.23;;;5.00;;
2570;SDS011;1295;51.130;6.732;2023-07-20T02:30:56;59.50;;;6.20;;
2570;SDS011;1295;51.130;6.732;2023-07-20T02:33:22;59.93;;;5.67;;
2570;SDS011;1295;51.130;6.732;2023-07-20T02:35:47;59.23;;;5.83;;
2570;SDS011;1295;51.130;6.732;2023-07-20T02:38:13;59.93;;;6.30;;
2570;SDS011;1295;51.130;6.732;2023-07-20T02:40:39;56.20;;;5.10;;
2570;SDS011;1295;51.130;6.732;2023-07-20T02:43:04;58.60;;;5.07;;
2570;SDS011;1295;51.130;6.732;2023-07-20T02:45:31;57.33;;;5.37;;
2570;SDS011;1295;51.130;6.732;2023-07-20T02:47:56;58.37;;;5.03;;
2570;SDS011;1295;51.130;6.732;2023-07-20T02:50:22;57.30;;;5.13;;
2570;SDS011;1295;51.130;6.732;2023-07-20T02:52:48;55.00;;;4.17;;
2570;SDS011;1295;51.130;6.732;2023-07-20T02:55:14;60.77;;;4.83;;
2570;SDS011;1295;51.130;6.732;2023-07-20T02:57:40;56.37;;;5.00;;
2570;SDS011;1295;51.130;6.732;2023-07-20T03:00:06;59.07;;;5.10;;
2570;SDS011;1295;51.130;6.732;2023-07-20T03:02:32;56.00;;;5.50;;
2570;SDS011;1295;51.130;6.732;2023-07-20T03:04:58;56.97;;;5.70;;
2570;SDS011;1295;51.130;6.732;2023-07-20T03:07:24;58.00;;;5.83;;
2570;SDS011;1295;51.130;6.732;2023-07-20T03:09:49;58.93;;;5.10;;
2570;SDS011;1295;51.130;6.732;2023-07-20T03:12:15;55.43;;;5.00;;
2570;SDS011;1295;51.130;6.732;2023-07-20T03:14:41;60.00;;;6.10;;
2570;SDS011;1295;51.130;6.732;2023-07-20T03:17:07;56.30;;;5.20;;
2570;SDS011;1295;51.130;6.732;2023-07-20T03:19:33;61.53;;;5.70;;
2570;SDS011;1295;51.130;6.732;2023-07-20T03:21:59;59.27;;;5.57;;
2570;SDS011;1295;51.130;6.732;2023-07-20T03:24:25;57.70;;;5.33;;
2570;SDS011;1295;51.130;6.732;2023-07-20T03:26:50;58.10;;;5.43;;
2570;SDS011;1295;51.130;6.732;2023-07-20T03:29:16;59.40;;;5.03;;
2570;SDS011;1295;51.130;6.732;2023-07-20T03:31:41;58.47;;;5.47;;
2570;SDS011;1295;51.130;6.732;2023-07-20T03:34:07;59.67;;;6.37;;
2570;SDS011;1295;51.130;6.732;2023-07-20T03:36:32;58.00;;;5.70;;
2570;SDS011;1295;51.130;6.732;2023-07-20T03:38:58;58.33;;;5.70;;
2570;SDS011;1295;51.130;6.732;2023-07-20T03:41:24;56.50;;;6.10;;
2570;SDS011;1295;51.130;6.732;2023-07-20T03:43:49;61.27;;;6.97;;
2570;SDS011;1295;51.130;6.732;2023-07-20T03:46:15;60.73;;;8.10;;
2570;SDS011;1295;51.130;6.732;2023-07-20T03:48:41;57.60;;;8.23;;
2570;SDS011;1295;51.130;6.732;2023-07-20T03:51:07;63.63;;;8.30;;
2570;SDS011;1295;51.130;6.732;2023-07-20T03:53:33;58.73;;;7.40;;
2570;SDS011;1295;51.130;6.732;2023-07-20T03:55:58;60.10;;;9.77;;
2570;SDS011;1295;51.130;6.732;2023-07-20T03:58:24;59.13;;;8.67;;
2570;SDS011;1295;51.130;6.732;2023-07-20T04:00:50;60.57;;;8.57;;
2570;SDS011;1295;51.130;6.732;2023-07-20T04:03:15;59.20;;;8.10;;
2570;SDS011;1295;51.130;6.732;2023-07-20T04:05:41;59.97;;;7.50;;
2570;SDS011;1295;51.130;6.732;2023-07-20T04:08:07;60.77;;;9.63;;
2570;SDS011;1295;51.130;6.732;2023-07-20T04:10:33;58.93;;;8.77;;
2570;SDS011;1295;51.130;6.732;2023-07-20T04:12:59;58.80;;;8.27;;
2570;SDS011;1295;51.130;6.732;2023-07-20T04:15:24;64.47;;;9.83;;
2570;SDS011;1295;51.130;6.732;2023-07-20T04:17:50;59.00;;;8.13;;
2570;SDS011;1295;51.130;6.732;2023-07-20T04:20:15;59.07;;;9.60;;
2570;SDS011;1295;51.130;6.732;2023-07-20T04:22:41;58.77;;;8.43;;
2570;SDS011;1295;51.130;6.732;2023-07-20T04:25:08;62.07;;;9.20;;
2570;SDS011;1295;51.130;6.732;2023-07-20T04:27:33;66.03;;;7.83;;
2570;SDS011;1295;51.130;6.732;2023-07-20T04:29:59;60.40;;;9.77;;
2570;SDS011;1295;51.130;6.732;2023-07-20T04:32:25;61.00;;;9.87;;
2570;SDS011;1295;51.130;6.732;2023-07-20T04:34:51;59.00;;;8.70;;
2570;SDS011;1295;51.130;6.732;2023-07-20T04:37:17;60.47;;;8.30;;
2570;SDS011;1295;51.130;6.732;2023-07-20T04:39:43;61.77;;;8.33;;
2570;SDS011;1295;51.130;6.732;2023-07-20T04:42:09;58.40;;;8.40;;
2570;SDS011;1295;51.130;6.732;2023-07-20T04:44:34;61.13;;;9.00;;
2570;SDS011;1295;51.130;6.732;2023-07-20T04:47:00;60.57;;;9.27;;
2570;SDS011;1295;51.130;6.732;2023-07-20T04:49:26;61.30;;;9.87;;
2570;SDS011;1295;51.130;6.732;2023-07-20T04:51:51;62.03;;;8.70;;
2570;SDS011;1295;51.130;6.732;2023-07-20T04:54:17;58.07;;;7.87;;
2570;SDS011;1295;51.130;6.732;2023-07-20T04:56:42;57.20;;;6.67;;
2570;SDS011;1295;51.130;6.732;2023-07-20T04:59:09;63.10;;;10.57;;
2570;SDS011;1295;51.130;6.732;2023-07-20T05:01:34;63.83;;;9.57;;
2570;SDS011;1295;51.130;6.732;2023-07-20T05:04:00;61.37;;;9.57;;
2570;SDS011;1295;51.130;6.732;2023-07-20T05:06:26;60.90;;;9.53;;
2570;SDS011;1295;51.130;6.732;2023-07-20T05:08:52;64.20;;;9.67;;
2570;SDS011;1295;51.130;6.732;2023-07-20T05:11:18;58.93;;;8.70;;
2570;SDS011;1295;51.130;6.732;2023-07-20T05:13:43;64.03;;;10.10;;
2570;SDS011;1295;51.130;6.732;2023-07-20T05:16:09;60.97;;;10.33;;
2570;SDS011;1295;51.130;6.732;2023-07-20T05:18:35;64.23;;;10.57;;
2570;SDS011;1295;51.130;6.732;2023-07-20T05:21:00;62.57;;;10.10;;
2570;SDS011;1295;51.130;6.732;2023-07-20T05:23:26;59.00;;;8.03;;
2570;SDS011;1295;51.130;6.732;2023-07-20T05:25:55;63.97;;;10.37;;
2570;SDS011;1295;51.130;6.732;2023-07-20T05:28:22;65.33;;;11.90;;
2570;SDS011;1295;51.130;6.732;2023-07-20T05:30:47;60.40;;;10.90;;
2570;SDS011;1295;51.130;6.732;2023-07-20T05:33:13;67.13;;;10.53;;
2570;SDS011;1295;51.130;6.732;2023-07-20T05:35:38;63.37;;;10.87;;
2570;SDS011;1295;51.130;6.732;2023-07-20T05:38:05;60.43;;;9.80;;
2570;SDS011;1295;51.130;6.732;2023-07-20T05:40:30;69.17;;;11.50;;
2570;SDS011;1295;51.130;6.732;2023-07-20T05:42:56;64.40;;;10.33;;
2570;SDS011;1295;51.130;6.732;2023-07-20T05:45:21;62.63;;;11.40;;
2570;SDS011;1295;51.130;6.732;2023-07-20T05:47:47;65.47;;;9.60;;
2570;SDS011;1295;51.130;6.732;2023-07-20T05:50:13;63.73;;;10.60;;
2570;SDS011;1295;51.130;6.732;2023-07-20T05:52:39;66.60;;;10.67;;
2570;SDS011;1295;51.130;6.732;2023-07-20T05:55:04;64.70;;;12.30;;
2570;SDS011;1295;51.130;6.732;2023-07-20T05:57:31;59.30;;;8.63;;
2570;SDS011;1295;51.130;6.732;2023-07-20T05:59:57;62.00;;;11.00;;
2570;SDS011;1295;51.130;6.732;2023-07-20T06:02:23;60.37;;;9.57;;
2570;SDS011;1295;51.130;6.732;2023-07-20T06:04:48;61.60;;;13.13;;
2570;SDS011;1295;51.130;6.732;2023-07-20T06:07:14;65.13;;;10.57;;
2570;SDS011;1295;51.130;6.732;2023-07-20T06:09:39;59.73;;;8.77;;
2570;SDS011;1295;51.130;6.732;2023-07-20T06:12:06;61.77;;;10.57;;
2570;SDS011;1295;51.130;6.732;2023-07-20T06:14:34;66.57;;;11.60;;
2570;SDS011;1295;51.130;6.732;2023-07-20T06:16:59;63.17;;;12.10;;
2570;SDS011;1295;51.130;6.732;2023-07-20T06:19:25;59.80;;;10.57;;
2570;SDS011;1295;51.130;6.732;2023-07-20T06:21:50;66.73;;;15.73;;
2570;SDS011;1295;51.130;6.732;2023-07-20T06:24:16;69.10;;;15.63;;
2570;SDS011;1295;51.130;6.732;2023-07-20T06:26:42;64.43;;;11.70;;
2570;SDS011;1295;51.130;6.732;2023-07-20T06:29:07;60.37;;;9.30;;
2570;SDS011;1295;51.130;6.732;2023-07-20T06:31:33;78.80;;;14.80;;
2570;SDS011;1295;51.130;6.732;2023-07-20T06:33:59;68.67;;;12.47;;
2570;SDS011;1295;51.130;6.732;2023-07-20T06:36:25;63.83;;;11.30;;
2570;SDS011;1295;51.130;6.732;2023-07-20T06:38:52;67.77;;;14.80;;
2570;SDS011;1295;51.130;6.732;2023-07-20T06:41:18;66.17;;;10.53;;
2570;SDS011;1295;51.130;6.732;2023-07-20T06:43:45;66.27;;;11.67;;
2570;SDS011;1295;51.130;6.732;2023-07-20T06:46:10;63.60;;;11.60;;
2570;SDS011;1295;51.130;6.732;2023-07-20T06:48:36;63.43;;;10.37;;
2570;SDS011;1295;51.130;6.732;2023-07-20T06:51:02;77.60;;;13.17;;
2570;SDS011;1295;51.130;6.732;2023-07-20T06:53:27;63.93;;;12.07;;
2570;SDS011;1295;51.130;6.732;2023-07-20T06:55:53;61.50;;;9.73;;
2570;SDS011;1295;51.130;6.732;2023-07-20T06:58:18;60.80;;;9.30;;
2570;SDS011;1295;51.130;6.732;2023-07-20T07:00:45;59.67;;;8.53;;
2570;SDS011;1295;51.130;6.732;2023-07-20T07:03:10;62.57;;;11.47;;
2570;SDS011;1295;51.130;6.732;2023-07-20T07:05:37;59.50;;;10.90;;
2570;SDS011;1295;51.130;6.732;2023-07-20T07:08:03;63.17;;;8.90;;
2570;SDS011;1295;51.130;6.732;2023-07-20T07:10:29;60.10;;;10.23;;
2570;SDS011;1295;51.130;6.732;2023-07-20T07:12:54;59.87;;;9.67;;
2570;SDS011;1295;51.130;6.732;2023-07-20T07:15:20;58.03;;;7.80;;
2570;SDS011;1295;51.130;6.732;2023-07-20T07:17:45;57.90;;;7.87;;
2570;SDS011;1295;51.130;6.732;2023-07-20T07:20:11;61.23;;;11.50;;
2570;SDS011;1295;51.130;6.732;2023-07-20T07:22:37;58.10;;;8.00;;
2570;SDS011;1295;51.130;6.732;2023-07-20T07:25:02;57.97;;;6.90;;
2570;SDS011;1295;51.130;6.732;2023-07-20T07:27:29;58.60;;;7.33;;
2570;SDS011;1295;51.130;6.732;2023-07-20T07:29:54;58.40;;;9.53;;
2570;SDS011;1295;51.130;6.732;2023-07-20T07:32:20;58.40;;;8.10;;
2570;SDS011;1295;51.130;6.732;2023-07-20T07:34:46;58.70;;;9.23;;
2570;SDS011;1295;51.130;6.732;2023-07-20T07:37:11;57.97;;;5.93;;
2570;SDS011;1295;51.130;6.732;2023-07-20T07:39:37;56.70;;;6.73;;
2570;SDS011;1295;51.130;6.732;2023-07-20T07:42:03;57.77;;;5.03;;
2570;SDS011;1295;51.130;6.732;2023-07-20T07:44:28;56.50;;;4.60;;
2570;SDS011;1295;51.130;6.732;2023-07-20T07:46:54;60.23;;;4.57;;
2570;SDS011;1295;51.130;6.732;2023-07-20T07:49:20;55.70;;;6.50;;
2570;SDS011;1295;51.130;6.732;2023-07-20T07:51:45;56.70;;;6.13;;
2570;SDS011;1295;51.130;6.732;2023-07-20T07:54:11;57.00;;;6.13;;
2570;SDS011;1295;51.130;6.732;2023-07-20T07:56:37;57.77;;;4.47;;
2570;SDS011;1295;51.130;6.732;2023-07-20T07:59:02;57.60;;;7.47;;
2570;SDS011;1295;51.130;6.732;2023-07-20T08:01:28;60.80;;;9.83;;
2570;SDS011;1295;51.130;6.732;2023-07-20T08:03:53;56.60;;;4.63;;
2570;SDS011;1295;51.130;6.732;2023-07-20T08:06:19;56.50;;;4.17;;
2570;SDS011;1295;51.130;6.732;2023-07-20T08:08:45;60.80;;;5.10;;
2570;SDS011;1295;51.130;6.732;2023-07-20T08:11:10;59.60;;;4.73;;
2570;SDS011;1295;51.130;6.732;2023-07-20T08:13:36;62.27;;;9.90;;
2570;SDS011;1295;51.130;6.732;2023-07-20T08:16:02;55.10;;;4.17;;
2570;SDS011;1295;51.130;6.732;2023-07-20T08:18:27;56.10;;;4.00;;
2570;SDS011;1295;51.130;6.732;2023-07-20T08:20:53;55.37;;;4.83;;
2570;SDS011;1295;51.130;6.732;2023-07-20T08:23:19;57.53;;;4.20;;
2570;SDS011;1295;51.130;6.732;2023-07-20T08:25:45;56.47;;;6.50;;
2570;SDS011;1295;51.130;6.732;2023-07-20T08:28:11;56.67;;;8.00;;
2570;SDS011;1295;51.130;6.732;2023-07-20T08:30:41;58.07;;;6.23;;
2570;SDS011;1295;51.130;6.732;2023-07-20T08:33:06;57.27;;;8.20;;
2570;SDS011;1295;51.130;6.732;2023-07-20T08:35:31;56.87;;;6.40;;
2570;SDS011;1295;51.130;6.732;2023-07-20T08:37:57;59.13;;;6.43;;
2570;SDS011;1295;51.130;6.732;2023-07-20T08:40:23;60.40;;;8.70;;
2570;SDS011;1295;51.130;6.732;2023-07-20T08:42:49;57.03;;;5.10;;
2570;SDS011;1295;51.130;6.732;2023-07-20T08:45:15;55.37;;;4.67;;
2570;SDS011;1295;51.130;6.732;2023-07-20T08:47:41;54.97;;;4.73;;
2570;SDS011;1295;51.130;6.732;2023-07-20T08:50:07;57.33;;;5.60;;
2570;SDS011;1295;51.130;6.732;2023-07-20T08:52:34;56.00;;;6.57;;
2570;SDS011;1295;51.130;6.732;2023-07-20T08:54:59;55.43;;;5.90;;
2570;SDS011;1295;51.130;6.732;2023-07-20T08:57:25;54.47;;;3.60;;
2570;SDS011;1295;51.130;6.732;2023-07-20T08:59:51;60.23;;;7.23;;
2570;SDS011;1295;51.130;6.732;2023-07-20T09:02:16;57.13;;;3.80;;
2570;SDS011;1295;51.130;6.732;2023-07-20T09:04:44;55.80;;;4.77;;
2570;SDS011;1295;51.130;6.732;2023-07-20T09:07:09;57.40;;;3.30;;
2570;SDS011;1295;51.130;6.732;2023-07-20T09:09:39;55.93;;;2.87;;
2570;SDS011;1295;51.130;6.732;2023-07-20T09:12:01;54.37;;;2.80;;
2570;SDS011;1295;51.130;6.732;2023-07-20T09:14:27;54.67;;;2.90;;
2570;SDS011;1295;51.130;6.732;2023-07-20T09:16:53;60.33;;;3.80;;
2570;SDS011;1295;51.130;6.732;2023-07-20T09:19:18;59.57;;;7.23;;
2570;SDS011;1295;51.130;6.732;2023-07-20T09:21:46;53.90;;;2.80;;
2570;SDS011;1295;51.130;6.732;2023-07-20T09:24:10;56.07;;;2.93;;
2570;SDS011;1295;51.130;6.732;2023-07-20T09:26:40;55.60;;;3.23;;
2570;SDS011;1295;51.130;6.732;2023-07-20T09:29:04;54.63;;;2.63;;
2570;SDS011;1295;51.130;6.732;2023-07-20T09:31:27;54.60;;;2.97;;
2570;SDS011;1295;51.130;6.732;2023-07-20T09:33:54;57.30;;;4.13;;
2570;SDS011;1295;51.130;6.732;2023-07-20T09:36:19;55.10;;;2.80;;
2570;SDS011;1295;51.130;6.732;2023-07-20T09:38:45;53.67;;;2.43;;
2570;SDS011;1295;51.130;6.732;2023-07-20T09:41:13;54.87;;;3.23;;
2570;SDS011;1295;51.130;6.732;2023-07-20T09:43:38;52.80;;;2.33;;
2570;SDS011;1295;51.130;6.732;2023-07-20T09:46:05;55.27;;;2.57;;
2570;SDS011;1295;51.130;6.732;2023-07-20T09:48:31;53.30;;;2.23;;
2570;SDS011;1295;51.130;6.732;2023-07-20T09:50:57;53.77;;;2.57;;
2570;SDS011;1295;51.130;6.732;2023-07-20T09:53:23;53.30;;;2.10;;
2570;SDS011;1295;51.130;6.732;2023-07-20T09:55:48;56.03;;;2.87;;
2570;SDS011;1295;51.130;6.732;2023-07-20T09:58:14;53.70;;;2.70;;
2570;SDS011;1295;51.130;6.732;2023-07-20T10:00:40;54.80;;;2.60;;
2570;SDS011;1295;51.130;6.732;2023-07-20T10:03:05;53.20;;;2.57;;
2570;SDS011;1295;51.130;6.732;2023-07-20T10:05:33;53.90;;;2.57;;
2570;SDS011;1295;51.130;6.732;2023-07-20T10:07:58;54.77;;;3.03;;
2570;SDS011;1295;51.130;6.732;2023-07-20T10:10:24;54.70;;;2.60;;
2570;SDS011;1295;51.130;6.732;2023-07-20T10:12:49;53.50;;;2.77;;
2570;SDS011;1295;51.130;6.732;2023-07-20T10:15:18;53.60;;;2.80;;
2570;SDS011;1295;51.130;6.732;2023-07-20T10:17:54;54.80;;;2.10;;
2570;SDS011;1295;51.130;6.732;2023-07-20T10:20:21;61.93;;;4.80;;
2570;SDS011;1295;51.130;6.732;2023-07-20T10:22:47;65.87;;;4.03;;
2570;SDS011;1295;51.130;6.732;2023-07-20T10:25:12;58.77;;;5.43;;
2570;SDS011;1295;51.130;6.732;2023-07-20T10:27:39;56.93;;;3.13;;
2570;SDS011;1295;51.130;6.732;2023-07-20T10:30:05;54.03;;;3.33;;
2570;SDS011;1295;51.130;6.732;2023-07-20T10:32:32;55.40;;;1.90;;
2570;SDS011;1295;51.130;6.732;2023-07-20T10:34:57;53.53;;;1.97;;
2570;SDS011;1295;51.130;6.732;2023-07-20T10:37:45;53.30;;;2.33;;
2570;SDS011;1295;51.130;6.732;2023-07-20T10:40:08;56.30;;;3.80;;
2570;SDS011;1295;51.130;6.732;2023-07-20T10:42:26;54.00;;;2.40;;
2570;SDS011;1295;51.130;6.732;2023-07-20T10:44:51;54.37;;;2.40;;
2570;SDS011;1295;51.130;6.732;2023-07-20T10:47:17;54.33;;;3.07;;
2570;SDS011;1295;51.130;6.732;2023-07-20T10:49:59;56.27;;;1.90;;
2570;SDS011;1295;51.130;6.732;2023-07-20T10:52:24;54.30;;;2.03;;
2570;SDS011;1295;51.130;6.732;2023-07-20T10:54:50;53.73;;;1.57;;
2570;SDS011;1295;51.130;6.732;2023-07-20T10:57:22;54.00;;;1.90;;
2570;SDS011;1295;51.130;6.732;2023-07-20T10:59:47;54.57;;;2.13;;
2570;SDS011;1295;51.130;6.732;2023-07-20T11:02:12;52.40;;;1.97;;
2570;SDS011;1295;51.130;6.732;2023-07-20T11:04:39;52.80;;;1.80;;
2570;SDS011;1295;51.130;6.732;2023-07-20T11:07:06;53.83;;;5.47;;
2570;SDS011;1295;51.130;6.732;2023-07-20T11:09:34;53.50;;;5.17;;
2570;SDS011;1295;51.130;6.732;2023-07-20T11:14:34;55.47;;;7.87;;
2570;SDS011;1295;51.130;6.732;2023-07-20T11:17:10;54.70;;;3.90;;
2570;SDS011;1295;51.130;6.732;2023-07-20T11:19:26;56.17;;;5.77;;
2570;SDS011;1295;51.130;6.732;2023-07-20T11:21:53;57.37;;;4.10;;
2570;SDS011;1295;51.130;6.732;2023-07-20T11:24:18;55.30;;;5.90;;
2570;SDS011;1295;51.130;6.732;2023-07-20T11:26:44;55.60;;;8.07;;
2570;SDS011;1295;51.130;6.732;2023-07-20T11:29:09;57.30;;;6.70;;
2570;SDS011;1295;51.130;6.732;2023-07-20T11:31:36;54.30;;;5.50;;
2570;SDS011;1295;51.130;6.732;2023-07-20T11:34:01;55.30;;;3.43;;
2570;SDS011;1295;51.130;6.732;2023-07-20T11:36:26;54.90;;;8.33;;
2570;SDS011;1295;51.130;6.732;2023-07-20T11:38:52;55.60;;;7.43;;
2570;SDS011;1295;51.130;6.732;2023-07-20T11:41:17;54.80;;;7.93;;
2570;SDS011;1295;51.130;6.732;2023-07-20T11:43:43;55.07;;;7.00;;
2570;SDS011;1295;51.130;6.732;2023-07-20T11:46:09;54.87;;;7.77;;
2570;SDS011;1295;51.130;6.732;2023-07-20T11:48:34;56.07;;;8.67;;
2570;SDS011;1295;51.130;6.732;2023-07-20T11:51:00;56.60;;;7.70;;
2570;SDS011;1295;51.130;6.732;2023-07-20T11:53:26;55.27;;;8.70;;
2570;SDS011;1295;51.130;6.732;2023-07-20T11:55:52;56.37;;;9.57;;
2570;SDS011;1295;51.130;6.732;2023-07-20T11:58:17;55.90;;;9.33;;
2570;SDS011;1295;51.130;6.732;2023-07-20T12:00:43;55.87;;;8.37;;
2570;SDS011;1295;51.130;6.732;2023-07-20T12:03:08;56.27;;;3.93;;
2570;SDS011;1295;51.130;6.732;2023-07-20T12:05:34;54.27;;;4.67;;
2570;SDS011;1295;51.130;6.732;2023-07-20T12:08:00;55.37;;;8.33;;
2570;SDS011;1295;51.130;6.732;2023-07-20T12:10:27;56.07;;;9.47;;
2570;SDS011;1295;51.130;6.732;2023-07-20T12:12:52;57.67;;;11.40;;
2570;SDS011;1295;51.130;6.732;2023-07-20T12:15:21;55.00;;;7.70;;
2570;SDS011;1295;51.130;6.732;2023-07-20T12:17:49;59.63;;;9.43;;
2570;SDS011;1295;51.130;6.732;2023-07-20T12:20:12;57.10;;;9.17;;
2570;SDS011;1295;51.130;6.732;2023-07-20T12:22:39;57.57;;;9.30;;
2570;SDS011;1295;51.130;6.732;2023-07-20T12:25:05;56.07;;;10.70;;
2570;SDS011;1295;51.130;6.732;2023-07-20T12:27:31;58.53;;;11.27;;
2570;SDS011;1295;51.130;6.732;2023-07-20T12:29:56;56.60;;;9.53;;
2570;SDS011;1295;51.130;6.732;2023-07-20T12:32:22;55.90;;;11.00;;
2570;SDS011;1295;51.130;6.732;2023-07-20T12:34:48;56.40;;;7.83;;
2570;SDS011;1295;51.130;6.732;2023-07-20T12:37:17;55.03;;;7.27;;
2570;SDS011;1295;51.130;6.732;2023-07-20T12:39:40;56.17;;;10.63;;
2570;SDS011;1295;51.130;6.732;2023-07-20T12:42:05;55.43;;;10.50;;
2570;SDS011;1295;51.130;6.732;2023-07-20T12:44:31;54.57;;;3.50;;
2570;SDS011;1295;51.130;6.732;2023-07-20T12:46:58;57.00;;;8.40;;
2570;SDS011;1295;51.130;6.732;2023-07-20T12:49:23;55.30;;;9.73;;
2570;SDS011;1295;51.130;6.732;2023-07-20T12:51:49;57.42;;;8.80;;
2570;SDS011;1295;51.130;6.732;2023-07-20T12:54:14;57.80;;;12.87;;
2570;SDS011;1295;51.130;6.732;2023-07-20T12:56:40;56.40;;;13.17;;
2570;SDS011;1295;51.130;6.732;2023-07-20T12:59:06;57.70;;;8.37;;
2570;SDS011;1295;51.130;6.732;2023-07-20T13:01:31;54.40;;;4.93;;
2570;SDS011;1295;51.130;6.732;2023-07-20T13:03:57;55.40;;;5.40;;
2570;SDS011;1295;51.130;6.732;2023-07-20T13:06:23;55.03;;;8.80;;
2570;SDS011;1295;51.130;6.732;2023-07-20T13:08:48;56.80;;;10.30;;
2570;SDS011;1295;51.130;6.732;2023-07-20T13:11:14;58.30;;;14.65;;
2570;SDS011;1295;51.130;6.732;2023-07-20T13:13:40;56.50;;;10.37;;
2570;SDS011;1295;51.130;6.732;2023-07-20T13:16:06;58.00;;;13.62;;
2570;SDS011;1295;51.130;6.732;2023-07-20T13:18:32;56.13;;;12.30;;
2570;SDS011;1295;51.130;6.732;2023-07-20T13:20:58;56.60;;;10.33;;
2570;SDS011;1295;51.130;6.732;2023-07-20T13:23:24;56.90;;;10.83;;
2570;SDS011;1295;51.130;6.732;2023-07-20T13:25:49;56.07;;;9.67;;
2570;SDS011;1295;51.130;6.732;2023-07-20T13:28:15;55.17;;;10.70;;
2570;SDS011;1295;51.130;6.732;2023-07-20T13:30:40;55.07;;;4.80;;
2570;SDS011;1295;51.130;6.732;2023-07-20T13:33:06;56.13;;;11.23;;
2570;SDS011;1295;51.130;6.732;2023-07-20T13:35:32;57.50;;;7.30;;
2570;SDS011;1295;51.130;6.732;2023-07-20T13:37:57;56.10;;;10.93;;
2570;SDS011;1295;51.130;6.732;2023-07-20T13:40:23;57.63;;;9.77;;
2570;SDS011;1295;51.130;6.732;2023-07-20T13:42:48;55.50;;;11.33;;
2570;SDS011;1295;51.130;6.732;2023-07-20T13:45:14;56.90;;;6.83;;
2570;SDS011;1295;51.130;6.732;2023-07-20T13:47:40;55.77;;;3.00;;
2570;SDS011;1295;51.130;6.732;2023-07-20T13:50:06;57.97;;;11.23;;
2570;SDS011;1295;51.130;6.732;2023-07-20T13:52:33;58.17;;;10.73;;
2570;SDS011;1295;51.130;6.732;2023-07-20T13:54:58;57.50;;;7.30;;
2570;SDS011;1295;51.130;6.732;2023-07-20T13:57:24;57.77;;;12.37;;
2570;SDS011;1295;51.130;6.732;2023-07-20T13:59:49;56.70;;;11.57;;
2570;SDS011;1295;51.130;6.732;2023-07-20T14:02:15;55.63;;;6.07;;
2570;SDS011;1295;51.130;6.732;2023-07-20T14:04:41;55.70;;;3.10;;
2570;SDS011;1295;51.130;6.732;2023-07-20T14:07:14;54.17;;;6.27;;
2570;SDS011;1295;51.130;6.732;2023-07-20T14:09:40;53.87;;;4.70;;
2570;SDS011;1295;51.130;6.732;2023-07-20T14:12:06;55.83;;;5.60;;
2570;SDS011;1295;51.130;6.732;2023-07-20T14:14:32;54.97;;;4.87;;
2570;SDS011;1295;51.130;6.732;2023-07-20T14:16:57;54.17;;;2.67;;
2570;SDS011;1295;51.130;6.732;2023-07-20T14:19:23;53.80;;;2.60;;
2570;SDS011;1295;51.130;6.732;2023-07-20T14:21:49;54.17;;;2.50;;
2570;SDS011;1295;51.130;6.732;2023-07-20T14:24:15;53.60;;;2.27;;
2570;SDS011;1295;51.130;6.732;2023-07-20T14:26:41;55.30;;;8.60;;
2570;SDS011;1295;51.130;6.732;2023-07-20T14:29:07;54.00;;;2.53;;
2570;SDS011;1295;51.130;6.732;2023-07-20T14:31:32;54.07;;;2.40;;
2570;SDS011;1295;51.130;6.732;2023-07-20T14:33:59;53.73;;;3.30;;
2570;SDS011;1295;51.130;6.732;2023-07-20T14:36:24;54.47;;;2.43;;
2570;SDS011;1295;51.130;6.732;2023-07-20T14:38:50;54.87;;;5.23;;
2570;SDS011;1295;51.130;6.732;2023-07-20T14:41:16;55.57;;;3.20;;
2570;SDS011;1295;51.130;6.732;2023-07-20T14:43:41;54.60;;;2.60;;
2570;SDS011;1295;51.130;6.732;2023-07-20T14:46:07;54.10;;;3.30;;
2570;SDS011;1295;51.130;6.732;2023-07-20T14:48:32;54.03;;;3.17;;
2570;SDS011;1295;51.130;6.732;2023-07-20T14:50:59;55.03;;;3.27;;
2570;SDS011;1295;51.130;6.732;2023-07-20T14:53:25;54.50;;;2.37;;
2570;SDS011;1295;51.130;6.732;2023-07-20T14:55:51;55.10;;;2.13;;